Time;durP1;ratioP1;P1;durP2;ratioP2;P2;SDS_P1;SDS_P2;PMS_P1;PMS_P2;Temp;Humidity;BMP_temperature;BMP_pressure;BME280_temperature;BME280_humidity;BME280_pressure;Samples;Min_cycle;Max_cycle;Signal;HPM_P1;HPM_P2
2022/07/06 00:02:19;;;;;;;6.25;5.08;;;;;;;21.71;56.96;100084.11;1716120;82;20988;-76
2022/07/06 00:04:46;;;;;;;5.45;4.50;;;;;;;21.69;56.92;100079.94;1719426;82;21353;-76
2022/07/06 00:07:13;;;;;;;6.20;4.58;;;;;;;21.65;56.93;100074.67;1702585;82;21833;-76
2022/07/06 00:09:43;;;;;;;5.85;4.50;;;;;;;21.62;57.09;100070.53;1730079;82;20976;-76
2022/07/06 00:12:10;;;;;;;5.78;4.92;;;;;;;21.64;57.07;100075.19;1742230;80;21040;-76
2022/07/06 00:14:36;;;;;;;5.37;4.87;;;;;;;21.63;57.10;100070.84;1728508;80;21043;-76
2022/07/06 00:17:04;;;;;;;7.42;5.62;;;;;;;21.63;57.05;100068.67;1744221;81;21013;-76
2022/07/06 00:19:32;;;;;;;6.85;5.10;;;;;;;21.64;57.04;100071.16;1740852;82;21790;-76
2022/07/06 00:21:58;;;;;;;6.45;5.20;;;;;;;21.63;56.96;100072.19;1716576;82;21004;-76
2022/07/06 00:24:25;;;;;;;5.95;5.00;;;;;;;21.64;57.15;100074.36;1718737;82;21063;-76
2022/07/06 00:26:51;;;;;;;5.62;4.47;;;;;;;21.59;57.86;100066.88;1724949;82;21016;-78
2022/07/06 00:29:18;;;;;;;5.45;4.75;;;;;;;21.56;58.15;100068.63;1742793;82;20986;-78
2022/07/06 00:31:45;;;;;;;6.50;4.70;;;;;;;21.54;58.19;100068.02;1723444;81;22338;-78
2022/07/06 00:34:11;;;;;;;6.90;5.35;;;;;;;21.51;58.30;100067.05;1720068;82;21072;-77
2022/07/06 00:36:38;;;;;;;6.10;5.30;;;;;;;21.47;58.35;100067.66;1716488;82;21001;-77
2022/07/06 00:39:04;;;;;;;5.80;5.20;;;;;;;21.39;58.41;100060.59;1723877;83;21447;-77
2022/07/06 00:41:31;;;;;;;8.08;5.58;;;;;;;21.35;58.35;100068.23;1727259;81;21584;-77
2022/07/06 00:43:58;;;;;;;7.55;5.60;;;;;;;21.31;58.26;100056.72;1724627;81;22830;-79
2022/07/06 00:46:33;;;;;;;6.55;5.42;;;;;;;21.25;58.47;100056.17;1737386;81;20937;-78
2022/07/06 00:49:00;;;;;;;7.17;5.25;;;;;;;21.18;58.65;100055.30;1695397;81;21415;-79
2022/07/06 00:51:30;;;;;;;8.05;5.40;;;;;;;21.10;58.86;100062.48;1728229;81;21449;-78
2022/07/06 00:54:01;;;;;;;5.80;5.00;;;;;;;21.04;59.06;100059.25;1746171;81;20995;-78
2022/07/06 00:56:30;;;;;;;7.15;5.72;;;;;;;21.01;59.19;100057.45;1725114;81;21815;-78
2022/07/06 00:58:58;;;;;;;7.40;5.40;;;;;;;20.99;59.36;100060.86;1723924;81;21425;-79
2022/07/06 01:01:24;;;;;;;6.42;5.62;;;;;;;20.98;59.42;100061.89;1725512;81;20951;-78
2022/07/06 01:03:51;;;;;;;7.30;5.60;;;;;;;20.96;59.48;100056.72;1738590;80;21099;-78
2022/07/06 01:06:18;;;;;;;7.15;5.45;;;;;;;20.96;59.72;100059.41;1748226;81;21035;-78
2022/07/06 01:08:44;;;;;;;9.13;5.47;;;;;;;20.95;59.99;100061.78;1723923;83;21911;-76
2022/07/06 01:11:11;;;;;;;7.58;5.95;;;;;;;20.92;59.96;100058.13;1732656;81;21452;-76
2022/07/06 01:13:38;;;;;;;11.60;6.67;;;;;;;20.88;60.03;100050.67;1744360;80;21044;-76
2022/07/06 01:16:05;;;;;;;11.12;6.30;;;;;;;20.84;60.06;100050.22;1732918;81;21008;-76
2022/07/06 01:18:33;;;;;;;8.55;6.70;;;;;;;20.80;60.03;100052.98;1723793;82;20947;-79
2022/07/06 01:21:08;;;;;;;9.78;6.53;;;;;;;20.76;60.11;100053.91;1731479;81;21863;-77
2022/07/06 01:23:41;;;;;;;7.55;6.72;;;;;;;20.74;60.09;100055.10;1736287;81;20984;-76
2022/07/06 01:26:10;;;;;;;8.83;6.72;;;;;;;20.70;60.07;100047.97;1729041;81;21051;-76
2022/07/06 01:28:37;;;;;;;11.22;7.53;;;;;;;20.68;60.15;100051.36;1738806;81;21566;-76
2022/07/06 01:31:04;;;;;;;12.13;7.65;;;;;;;20.65;60.18;100050.39;1725094;81;21482;-79
2022/07/06 01:33:30;;;;;;;12.33;7.78;;;;;;;20.63;60.33;100058.33;1724259;81;22457;-79
2022/07/06 01:35:58;;;;;;;9.08;7.08;;;;;;;20.62;60.55;100063.38;1723838;81;20988;-79
2022/07/06 01:38:25;;;;;;;9.43;7.40;;;;;;;20.59;60.70;100052.53;1727602;81;20941;-76
2022/07/06 01:40:51;;;;;;;11.88;7.42;;;;;;;20.56;60.80;100055.09;1729461;82;21347;-75
2022/07/06 01:43:18;;;;;;;11.35;8.08;;;;;;;20.53;60.93;100058.15;1696980;82;21708;-76
2022/07/06 01:45:45;;;;;;;12.30;8.18;;;;;;;20.50;60.99;100051.84;1721185;82;21908;-76
2022/07/06 01:48:13;;;;;;;10.03;8.25;;;;;;;20.48;60.70;100055.75;1718466;82;21577;-76
2022/07/06 01:50:40;;;;;;;11.15;8.20;;;;;;;20.45;60.71;100054.26;1715410;82;21422;-76
2022/07/06 01:53:06;;;;;;;12.70;8.25;;;;;;;20.44;60.79;100053.11;1731586;82;21032;-76
2022/07/06 01:55:33;;;;;;;11.53;8.83;;;;;;;20.42;60.81;100061.33;1716977;82;21056;-76
2022/07/06 01:57:59;;;;;;;12.78;8.98;;;;;;;20.39;60.89;100056.36;1715898;82;21920;-76
2022/07/06 02:00:26;;;;;;;12.60;8.30;;;;;;;20.38;61.03;100062.75;1721388;82;20959;-76
2022/07/06 02:02:53;;;;;;;14.18;8.53;;;;;;;20.38;61.16;100062.75;1742796;82;21040;-76
2022/07/06 02:05:20;;;;;;;9.75;8.00;;;;;;;20.39;61.31;100074.31;1728602;82;20996;-76
2022/07/06 02:07:47;;;;;;;14.13;8.13;;;;;;;20.38;61.33;100068.12;1735696;82;21517;-76
2022/07/06 02:10:14;;;;;;;11.63;8.00;;;;;;;20.37;61.42;100062.44;1729933;82;21804;-76
2022/07/06 02:12:43;;;;;;;11.20;7.90;;;;;;;20.38;61.50;100064.09;1716767;80;21392;-76
2022/07/06 02:15:10;;;;;;;11.60;8.33;;;;;;;20.39;61.56;100064.92;1718605;82;21011;-76
2022/07/06 02:17:38;;;;;;;16.55;8.43;;;;;;;20.39;61.72;100065.75;1743999;82;20989;-76
2022/07/06 02:20:08;;;;;;;11.50;8.48;;;;;;;20.40;61.90;100065.23;1720592;82;20940;-76
2022/07/06 02:22:35;;;;;;;12.30;8.38;;;;;;;20.41;62.13;100063.70;1716576;82;21802;-76
2022/07/06 02:25:02;;;;;;;10.35;8.30;;;;;;;20.41;62.35;100065.04;1717037;82;20928;-76
2022/07/06 02:27:30;;;;;;;13.00;8.33;;;;;;;20.41;62.44;100058.84;1683549;84;21493;-76
2022/07/06 02:29:58;;;;;;;16.05;8.78;;;;;;;20.41;62.55;100058.33;1739646;81;20984;-76
2022/07/06 02:32:25;;;;;;;11.55;8.73;;;;;;;20.42;62.48;100064.52;1720055;82;20944;-76
2022/07/06 02:34:52;;;;;;;13.98;9.30;;;;;;;20.44;62.42;100061.99;1721599;82;21946;-75
2022/07/06 02:37:19;;;;;;;13.95;8.98;;;;;;;20.45;62.44;100058.80;1661995;85;21105;-76
2022/07/06 02:39:47;;;;;;;14.93;8.53;;;;;;;20.46;62.53;100064.00;1729385;81;21026;-75
2022/07/06 02:42:14;;;;;;;10.72;8.18;;;;;;;20.48;62.54;100059.77;1701320;84;20999;-75
2022/07/06 02:44:41;;;;;;;11.93;8.83;;;;;;;20.50;62.62;100062.57;1684998;84;21517;-75
2022/07/06 02:47:08;;;;;;;13.38;8.65;;;;;;;20.51;62.71;100060.20;1686601;84;21825;-75
2022/07/06 02:49:35;;;;;;;12.40;8.00;;;;;;;20.52;62.70;100053.81;1686125;84;21020;-75
2022/07/06 02:52:01;;;;;;;9.20;7.67;;;;;;;20.54;62.65;100049.59;1687904;84;20984;-75
2022/07/06 02:54:29;;;;;;;12.33;7.72;;;;;;;20.56;62.59;100061.81;1679557;84;21506;-74
2022/07/06 02:56:57;;;;;;;11.35;8.10;;;;;;;20.58;62.54;100061.09;1688705;84;21109;-74
2022/07/06 02:59:25;;;;;;;11.43;7.72;;;;;;;20.62;62.51;100062.03;1679200;84;22323;-75
2022/07/06 03:01:52;;;;;;;10.23;8.10;;;;;;;20.65;62.44;100060.30;1680051;84;21435;-75
2022/07/06 03:04:19;;;;;;;9.43;7.62;;;;;;;20.69;62.53;100062.41;1685433;84;21144;-75
2022/07/06 03:06:46;;;;;;;9.38;7.55;;;;;;;20.72;62.50;100063.87;1682365;84;20984;-75
2022/07/06 03:09:13;;;;;;;8.65;7.45;;;;;;;20.75;62.52;100059.44;1697545;84;20952;-75
2022/07/06 03:11:40;;;;;;;10.78;7.72;;;;;;;20.79;62.58;100062.07;1692634;82;21938;-74
2022/07/06 03:14:06;;;;;;;13.28;8.18;;;;;;;20.85;62.57;100065.33;1703645;84;21106;-75
2022/07/06 03:16:34;;;;;;;9.08;7.45;;;;;;;20.90;62.63;100064.21;1705562;83;20972;-75
2022/07/06 03:19:01;;;;;;;12.88;8.08;;;;;;;20.96;62.70;100055.38;1681687;84;21034;-75
2022/07/06 03:21:28;;;;;;;13.10;8.18;;;;;;;21.05;62.66;100060.09;1694437;83;21030;-75
2022/07/06 03:23:55;;;;;;;9.68;8.00;;;;;;;21.14;62.58;100050.33;1679708;84;22708;-75
2022/07/06 03:26:21;;;;;;;10.28;7.83;;;;;;;21.25;62.52;100056.99;1683853;84;21012;-74
2022/07/06 03:28:49;;;;;;;11.28;8.15;;;;;;;21.34;62.38;100057.69;1679876;84;21054;-75
2022/07/06 03:31:15;;;;;;;12.00;8.73;;;;;;;21.43;62.32;100060.52;1698397;84;21035;-75
2022/07/06 03:33:42;;;;;;;13.03;8.78;;;;;;;21.53;62.20;100056.95;1698994;84;21095;-75
2022/07/06 03:36:09;;;;;;;12.90;8.43;;;;;;;21.62;62.12;100055.75;1685454;84;21863;-75
2022/07/06 03:38:36;;;;;;;12.33;8.13;;;;;;;21.71;61.65;100062.61;1690180;82;21408;-75
2022/07/06 03:41:02;;;;;;;13.30;8.55;;;;;;;21.84;61.54;100063.67;1694571;83;20993;-75
2022/07/06 03:43:30;;;;;;;14.80;7.90;;;;;;;21.96;61.41;100052.11;1665925;84;21595;-75
2022/07/06 03:45:56;;;;;;;12.78;8.05;;;;;;;22.09;61.20;100055.88;1706681;81;21116;-75
2022/07/06 03:48:23;;;;;;;12.30;8.25;;;;;;;22.22;61.63;100059.95;1649151;83;21950;-75
2022/07/06 03:50:51;;;;;;;12.80;8.45;;;;;;;22.34;61.91;100056.95;1693984;83;21033;-74
2022/07/06 03:53:17;;;;;;;13.25;9.53;;;;;;;22.45;61.78;100058.20;1694206;84;21567;-74
2022/07/06 03:56:27;;;;;;;16.42;10.75;;;;;;;22.56;62.09;100061.09;1708448;81;21053;-75
2022/07/06 03:58:13;;;;;;;15.23;10.65;;;;;;;22.67;61.64;100058.81;1689780;84;21550;-76
2022/07/06 04:00:40;;;;;;;16.12;10.40;;;;;;;22.74;61.04;100052.39;1705616;81;21771;-75
2022/07/06 04:03:09;;;;;;;12.53;9.55;;;;;;;22.81;60.19;100061.30;1717414;81;21155;-75
2022/07/06 04:05:39;;;;;;;13.45;9.10;;;;;;;22.88;59.52;100055.11;1706543;81;21081;-75
2022/07/06 04:08:06;;;;;;;11.88;8.78;;;;;;;22.94;58.77;100055.60;1694486;83;20978;-74
2022/07/06 04:10:34;;;;;;;9.55;8.55;;;;;;;23.00;57.72;100054.78;1707364;83;21033;-78
2022/07/06 04:13:02;;;;;;;14.68;9.35;;;;;;;23.06;57.15;100050.70;1669573;83;22506;-78
2022/07/06 04:15:30;;;;;;;10.90;8.03;;;;;;;23.14;57.10;100046.95;1714532;83;21101;-79
2022/07/06 04:17:58;;;;;;;11.35;8.00;;;;;;;23.20;56.06;100050.69;1718104;83;21120;-78
2022/07/06 04:20:27;;;;;;;11.73;7.45;;;;;;;23.26;55.35;100045.28;1701636;83;21574;-77
2022/07/06 04:22:53;;;;;;;10.15;8.40;;;;;;;23.31;54.80;100042.77;1694337;83;21049;-77
2022/07/06 04:25:21;;;;;;;13.65;8.88;;;;;;;23.38;54.38;100044.09;1697898;83;22061;-77
2022/07/06 04:27:48;;;;;;;12.68;8.60;;;;;;;23.44;53.99;100041.88;1696759;83;21041;-77
2022/07/06 04:30:15;;;;;;;14.93;9.73;;;;;;;23.50;53.81;100040.20;1713176;81;21041;-77
2022/07/06 04:32:42;;;;;;;14.58;10.10;;;;;;;23.57;53.68;100041.84;1704901;83;21151;-77
2022/07/06 04:35:10;;;;;;;15.75;9.90;;;;;;;23.64;53.82;100042.67;1705781;83;21000;-76
2022/07/06 04:37:39;;;;;;;14.25;10.10;;;;;;;23.74;53.94;100045.39;1707401;83;22275;-76
2022/07/06 04:40:07;;;;;;;15.38;10.30;;;;;;;23.80;54.22;100041.33;1705339;83;21056;-78
2022/07/06 04:42:34;;;;;;;15.00;9.83;;;;;;;23.89;54.54;100036.50;1701436;83;21136;-77
2022/07/06 04:45:01;;;;;;;13.45;9.60;;;;;;;23.97;54.54;100027.64;1697137;83;21347;-80
2022/07/06 04:47:28;;;;;;;15.78;9.45;;;;;;;24.08;54.47;100029.33;1717427;83;22438;-81
2022/07/06 04:49:55;;;;;;;15.58;9.08;;;;;;;24.16;54.30;100027.72;1708146;83;21787;-83
2022/07/06 04:52:23;;;;;;;13.85;9.40;;;;;;;24.24;54.47;100020.71;1704674;83;21508;-87
2022/07/06 04:54:50;;;;;;;19.45;9.75;;;;;;;24.34;54.76;100023.77;1694071;83;21097;-76
2022/07/06 04:57:16;;;;;;;11.93;9.08;;;;;;;24.43;54.93;100019.75;1685478;83;20994;-79
2022/07/06 04:59:43;;;;;;;11.00;8.53;;;;;;;24.54;54.87;100014.98;1710260;83;21065;-80
2022/07/06 05:02:10;;;;;;;11.63;8.18;;;;;;;24.65;54.65;100018.83;1698076;83;21928;-86
2022/07/06 05:04:36;;;;;;;12.30;8.10;;;;;;;24.79;54.35;100018.98;1701430;83;21026;-82
2022/07/06 05:07:03;;;;;;;14.30;7.72;;;;;;;24.93;53.90;100025.62;1713173;83;20998;-83
2022/07/06 05:09:29;;;;;;;8.45;7.47;;;;;;;25.06;53.61;100029.55;1720218;83;21029;-79
2022/07/06 05:11:58;;;;;;;9.88;6.58;;;;;;;25.17;53.34;100022.03;1711836;83;21068;-78
2022/07/06 05:14:25;;;;;;;7.75;6.25;;;;;;;25.28;52.21;100028.56;1719413;83;21926;-77
2022/07/06 05:16:53;;;;;;;8.68;5.70;;;;;;;25.35;51.88;100024.73;1711081;83;20974;-75
2022/07/06 05:19:20;;;;;;;11.75;5.87;;;;;;;25.42;51.01;100022.48;1704314;83;21056;-75
2022/07/06 05:21:48;;;;;;;8.70;5.53;;;;;;;25.51;50.87;100024.65;1705434;83;21053;-78
2022/07/06 05:24:15;;;;;;;7.78;5.28;;;;;;;25.57;49.62;100019.66;1694117;83;20986;-78
2022/07/06 05:26:42;;;;;;;12.55;5.70;;;;;;;25.63;49.49;100018.76;1698432;83;21885;-75
2022/07/06 05:29:10;;;;;;;10.88;5.70;;;;;;;25.68;49.51;100020.27;1718724;83;21088;-78
2022/07/06 05:31:38;;;;;;;7.00;5.37;;;;;;;25.76;49.11;100025.06;1706465;83;21044;-77
2022/07/06 05:34:04;;;;;;;8.10;5.20;;;;;;;25.84;48.84;100027.45;1713990;83;20989;-76
2022/07/06 05:36:31;;;;;;;5.97;5.33;;;;;;;25.92;48.59;100021.72;1715668;83;21516;-73
2022/07/06 05:38:58;;;;;;;8.73;5.12;;;;;;;26.03;48.82;100016.86;1668875;85;21900;-75
2022/07/06 05:41:25;;;;;;;23.60;21.00;;;;;;;26.15;48.38;100018.23;1698896;83;21025;-77
2022/07/06 05:43:51;;;;;;;13.03;6.83;;;;;;;26.26;47.90;100013.40;1703555;83;21006;-76
2022/07/06 05:46:18;;;;;;;17.90;16.00;;;;;;;26.37;47.43;100016.67;1713326;83;21531;-77
2022/07/06 05:51:30;;;;;;;16.80;12.47;;;;;;;26.58;46.83;100009.86;1708228;83;21918;-78
2022/07/06 05:53:57;;;;;;;9.45;6.03;;;;;;;26.68;46.17;100007.38;1706701;83;21308;-77
2022/07/06 05:56:23;;;;;;;6.30;5.20;;;;;;;26.78;45.80;99997.30;1710548;83;20970;-79
2022/07/06 05:58:51;;;;;;;9.18;5.58;;;;;;;26.87;45.97;99995.06;1705816;83;21042;-78
2022/07/06 06:01:18;;;;;;;9.90;5.83;;;;;;;26.95;45.76;100001.48;1711539;83;20997;-77
2022/07/06 06:03:46;;;;;;;7.30;5.60;;;;;;;27.06;45.72;99997.95;1722501;82;21775;-75
2022/07/06 06:06:13;;;;;;;9.88;5.87;;;;;;;27.17;45.33;99997.62;1697326;83;21014;-77
2022/07/06 06:08:40;;;;;;;8.93;5.60;;;;;;;27.25;45.01;100002.14;1694062;84;21043;-71
2022/07/06 06:11:06;;;;;;;12.15;5.78;;;;;;;27.36;44.60;99999.92;1713913;82;21033;-74
2022/07/06 06:13:34;;;;;;;8.25;5.33;;;;;;;27.48;44.69;99994.98;1701524;83;21049;-72
2022/07/06 06:16:00;;;;;;;7.53;5.25;;;;;;;27.57;43.87;99987.58;1718947;83;22345;-71
2022/07/06 06:18:27;;;;;;;6.28;5.67;;;;;;;27.68;43.73;99987.80;1703488;83;21085;-71
2022/07/06 06:20:54;;;;;;;7.20;5.20;;;;;;;27.78;43.77;99987.44;1685941;83;20986;-72
2022/07/06 06:23:20;;;;;;;6.58;5.00;;;;;;;27.90;43.86;99983.33;1696030;83;21058;-72
2022/07/06 06:25:47;;;;;;;10.75;5.35;;;;;;;28.01;43.04;99979.72;1721342;82;21049;-72
2022/07/06 06:28:15;;;;;;;11.08;5.50;;;;;;;28.14;43.15;99979.92;1677467;84;22588;-71
2022/07/06 06:30:41;;;;;;;7.78;4.92;;;;;;;28.29;43.30;99978.03;1691304;84;21441;-71
2022/07/06 06:33:12;;;;;;;16.52;6.95;;;;;;;28.38;43.15;99974.66;1689420;84;21029;-72
2022/07/06 06:35:48;;;;;;;7.00;6.28;;;;;;;28.49;43.13;99981.06;1672575;84;21541;-71
2022/07/06 06:38:15;;;;;;;8.03;5.80;;;;;;;28.61;42.16;99979.59;1651141;85;21433;-72
2022/07/06 06:40:42;;;;;;;9.10;5.80;;;;;;;28.74;41.64;99981.41;1642709;84;22587;-72
2022/07/06 06:43:08;;;;;;;8.03;5.70;;;;;;;28.82;41.25;99981.52;1750480;81;20915;-71
2022/07/06 06:45:37;;;;;;;7.60;5.30;;;;;;;28.89;41.43;99978.13;1726070;81;20963;-72
2022/07/06 06:48:04;;;;;;;12.53;7.28;;;;;;;28.98;41.27;99977.97;1727630;81;21129;-73
2022/07/06 06:50:31;;;;;;;12.65;8.80;;;;;;;29.07;41.48;99976.45;1747962;81;21478;-70
2022/07/06 06:52:57;;;;;;;8.35;6.95;;;;;;;29.18;41.70;99968.42;1745288;80;22511;-72
2022/07/06 06:55:24;;;;;;;16.35;11.18;;;;;;;29.27;41.04;99972.34;1729519;81;21392;-72
2022/07/06 06:57:51;;;;;;;14.78;9.83;;;;;;;29.36;41.00;99971.63;1707634;83;21000;-71
2022/07/06 07:00:17;;;;;;;25.32;15.00;;;;;;;29.46;39.44;99968.20;1718861;81;21438;-71
2022/07/06 07:02:45;;;;;;;30.48;15.98;;;;;;;29.56;38.76;99968.34;1749922;81;21015;-78
2022/07/06 07:05:11;;;;;;;34.30;16.65;;;;;;;29.77;38.91;99966.63;1724429;83;21868;-79
2022/07/06 07:07:38;;;;;;;40.75;20.57;;;;;;;29.85;38.75;99955.82;1759352;80;21058;-87
2022/07/06 07:10:07;;;;;;;36.65;19.50;;;;;;;29.85;38.75;99955.82;1758025;80;21012;-79
2022/07/06 07:12:34;;;;;;;44.18;20.25;;;;;;;29.93;38.32;99957.53;1735381;81;21011;-83
2022/07/06 07:15:01;;;;;;;33.30;18.52;;;;;;;30.07;39.49;99953.03;1732342;81;21006;-85
2022/07/06 07:17:28;;;;;;;37.28;17.15;;;;;;;30.07;39.49;99953.03;1732009;81;21982;-80
2022/07/06 07:19:56;;;;;;;43.30;19.57;;;;;;;30.18;39.61;99948.76;1690311;83;20971;-78
2022/07/06 07:22:23;;;;;;;33.40;14.85;;;;;;;30.47;39.36;99950.59;1691890;83;21082;-80
2022/07/06 07:24:49;;;;;;;37.55;14.87;;;;;;;30.47;39.36;99950.59;1687111;83;21728;-80
2022/07/06 07:27:15;;;;;;;20.15;10.55;;;;;;;30.63;39.55;99946.61;1687199;83;21027;-79
2022/07/06 07:29:42;;;;;;;26.55;10.63;;;;;;;30.76;39.31;99947.52;1687204;83;21835;-79
2022/07/06 07:32:09;;;;;;;25.20;9.60;;;;;;;30.85;38.35;99948.66;1687829;85;21008;-79
2022/07/06 07:34:36;;;;;;;28.20;12.05;;;;;;;30.95;38.00;99946.52;1725695;81;21047;-79
2022/07/06 07:37:03;;;;;;;22.32;11.22;;;;;;;31.02;37.78;99952.01;1740552;81;20990;-79
2022/07/06 07:39:30;;;;;;;26.60;10.10;;;;;;;31.11;37.08;99943.31;1737102;81;21440;-79
2022/07/06 07:41:56;;;;;;;21.97;8.88;;;;;;;31.16;36.97;99946.05;1693580;83;22532;-78
2022/07/06 07:44:24;;;;;;;15.40;7.17;;;;;;;31.22;37.09;99951.29;1683651;85;21435;-79
2022/07/06 07:46:52;;;;;;;16.62;8.75;;;;;;;31.28;36.69;99950.23;1715735;82;21410;-78
2022/07/06 07:49:20;;;;;;;12.13;6.55;;;;;;;31.37;35.98;99948.34;1716282;82;21037;-78
2022/07/06 07:51:50;;;;;;;14.40;6.08;;;;;;;31.43;36.50;99950.80;1719812;82;21063;-78
2022/07/06 07:54:17;;;;;;;15.98;5.87;;;;;;;31.54;36.55;99947.54;1745364;82;21990;-78
2022/07/06 07:56:43;;;;;;;13.43;5.80;;;;;;;31.60;36.33;99947.83;1745306;82;20964;-79
2022/07/06 07:59:10;;;;;;;13.22;5.70;;;;;;;31.69;36.17;99944.02;1745368;80;20997;-79
2022/07/06 08:01:37;;;;;;;8.03;5.83;;;;;;;31.77;38.16;99944.34;1745363;82;21124;-79
2022/07/06 08:04:04;;;;;;;9.93;5.80;;;;;;;31.84;39.00;99938.05;1745428;81;21415;-79
2022/07/06 08:06:30;;;;;;;12.70;5.97;;;;;;;31.90;38.95;99936.14;1745536;82;21914;-79
2022/07/06 08:08:57;;;;;;;11.00;5.33;;;;;;;31.97;38.88;99941.34;1740997;80;21012;-79
2022/07/06 08:11:24;;;;;;;7.30;5.50;;;;;;;32.01;38.45;99940.51;1694345;82;20965;-79
2022/07/06 08:13:52;;;;;;;10.78;5.75;;;;;;;32.04;38.65;99939.13;1738271;82;21487;-79
2022/07/06 08:16:19;;;;;;;8.43;5.70;;;;;;;32.07;39.08;99938.61;1715871;82;20969;-78
2022/07/06 08:18:45;;;;;;;10.58;5.47;;;;;;;32.06;38.36;99933.69;1715416;83;21836;-78
2022/07/06 08:21:12;;;;;;;8.75;5.55;;;;;;;32.09;39.03;99933.68;1732765;82;20972;-79
2022/07/06 08:23:38;;;;;;;7.12;4.72;;;;;;;32.13;38.91;99931.48;1745466;82;21080;-78
2022/07/06 08:26:04;;;;;;;7.22;5.40;;;;;;;32.18;39.50;99938.31;1739770;82;21012;-79
2022/07/06 08:28:31;;;;;;;6.90;5.05;;;;;;;32.30;39.87;99939.42;1715707;83;21048;-78
2022/07/06 08:30:58;;;;;;;6.05;5.10;;;;;;;32.37;39.12;99939.96;1715768;83;22924;-78
2022/07/06 08:33:24;;;;;;;7.45;5.30;;;;;;;32.38;39.97;99933.95;1716338;81;20956;-78
2022/07/06 08:35:51;;;;;;;10.63;5.17;;;;;;;32.42;40.70;99938.57;1660149;85;21046;-78
2022/07/06 08:38:18;;;;;;;8.95;5.45;;;;;;;32.50;41.14;99935.01;1654480;85;21234;-79
2022/07/06 08:40:49;;;;;;;5.42;4.92;;;;;;;32.54;41.39;99936.11;1691090;83;20994;-78
2022/07/06 08:43:16;;;;;;;9.50;5.12;;;;;;;32.60;40.69;99933.61;1683978;83;21489;-79
2022/07/06 08:45:45;;;;;;;6.78;5.37;;;;;;;32.63;40.74;99933.08;1676468;83;21398;-78
2022/07/06 08:48:13;;;;;;;8.40;5.40;;;;;;;32.56;40.97;99936.64;1660805;85;20962;-78
2022/07/06 08:50:39;;;;;;;6.87;5.10;;;;;;;32.46;40.63;99943.77;1660714;85;21024;-78
2022/07/06 08:53:06;;;;;;;6.62;5.30;;;;;;;32.53;40.67;99929.83;1663428;85;20962;-78
2022/07/06 08:55:33;;;;;;;9.30;6.08;;;;;;;32.54;40.68;99929.27;1688479;85;22773;-78
2022/07/06 08:58:00;;;;;;;8.35;5.60;;;;;;;32.57;40.54;99933.63;1688559;84;21777;-78
2022/07/06 09:00:26;;;;;;;7.70;5.60;;;;;;;32.64;40.82;99938.81;1684991;83;21448;-78
2022/07/06 09:02:56;;;;;;;8.45;5.30;;;;;;;32.69;41.81;99940.15;1687946;85;20990;-78
2022/07/06 09:05:22;;;;;;;6.75;5.47;;;;;;;32.79;39.89;99939.30;1669048;83;21010;-78
2022/07/06 09:07:52;;;;;;;6.17;5.12;;;;;;;32.85;40.96;99942.33;1660745;85;21845;-78
2022/07/06 09:10:26;;;;;;;7.17;4.97;;;;;;;32.97;41.52;99943.62;1660554;85;21528;-79
2022/07/06 09:12:49;;;;;;;6.30;5.70;;;;;;;33.07;40.83;99937.30;1660652;85;21416;-79
2022/07/06 09:15:16;;;;;;;9.13;5.30;;;;;;;33.13;40.62;99928.52;1661972;85;21416;-79
2022/07/06 09:17:43;;;;;;;6.03;4.92;;;;;;;33.21;40.41;99931.49;1673131;85;20994;-78
2022/07/06 09:20:11;;;;;;;5.20;4.70;;;;;;;33.31;39.19;99932.80;1688564;83;21828;-78
2022/07/06 09:22:38;;;;;;;6.75;5.42;;;;;;;33.41;39.23;99927.84;1660676;85;21512;-78
2022/07/06 09:25:12;;;;;;;7.00;5.50;;;;;;;33.49;38.50;99931.36;1660829;85;21045;-78
2022/07/06 09:27:41;;;;;;;;;;;;;;;33.43;37.25;99928.92;1663191;85;21052;-78
2022/07/06 09:30:09;;;;;;;7.05;5.20;;;;;;;33.38;37.11;99931.13;1660974;85;20171;-79
2022/07/06 09:32:44;;;;;;;7.58;5.62;;;;;;;33.39;38.79;99926.47;1669972;85;21961;-78
2022/07/06 09:35:29;;;;;;;6.25;5.28;;;;;;;33.53;37.87;99933.78;1671110;85;20993;-77
2022/07/06 09:38:05;;;;;;;6.10;5.50;;;;;;;33.66;37.80;99930.13;1680248;84;21036;-78
2022/07/06 09:40:34;;;;;;;7.95;5.50;;;;;;;33.73;38.00;99926.52;1695963;82;20977;-79
2022/07/06 09:43:22;;;;;;;10.05;5.47;;;;;;;33.76;37.26;99930.05;1729551;81;20976;-78
2022/07/06 09:45:54;;;;;;;7.78;5.22;;;;;;;33.75;36.93;99920.20;1692873;83;22309;-78
2022/07/06 09:48:24;;;;;;;6.40;4.65;;;;;;;33.74;36.43;99914.45;1755106;81;20988;-77
2022/07/06 09:51:05;;;;;;;9.45;5.40;;;;;;;33.74;34.82;99915.83;1705140;84;21063;-78
2022/07/06 09:53:33;;;;;;;12.50;5.25;;;;;;;33.61;36.49;99908.27;1679169;84;21167;-79
2022/07/06 09:56:01;;;;;;;9.65;5.15;;;;;;;33.70;37.14;99912.03;1628375;84;21014;-79
2022/07/06 09:58:28;;;;;;;5.45;4.90;;;;;;;33.90;36.96;99903.67;1679430;84;21833;-78
2022/07/06 10:00:54;;;;;;;7.15;4.87;;;;;;;34.13;36.62;99903.45;1684744;84;20958;-78
2022/07/06 10:03:21;;;;;;;7.35;4.45;;;;;;;34.26;33.54;99893.20;1698270;84;21558;-79
2022/07/06 10:05:48;;;;;;;9.65;4.40;;;;;;;34.29;33.08;99896.72;1708107;82;21067;-78
2022/07/06 10:08:15;;;;;;;6.22;4.65;;;;;;;34.25;33.22;99898.39;1700409;84;20999;-79
2022/07/06 10:10:44;;;;;;;6.65;4.30;;;;;;;34.23;32.91;99897.05;1702270;82;21031;-80
2022/07/06 10:13:11;;;;;;;11.22;4.87;;;;;;;34.24;32.07;99890.45;1679252;85;20968;-80
2022/07/06 10:15:39;;;;;;;6.75;4.72;;;;;;;34.12;33.33;99893.59;1688479;84;21518;-77
2022/07/06 10:18:09;;;;;;;7.50;4.45;;;;;;;34.06;33.40;99885.15;1707993;82;21458;-79
2022/07/06 10:20:38;;;;;;;6.50;4.42;;;;;;;34.02;33.80;99884.92;1707818;84;21003;-79
2022/07/06 10:23:07;;;;;;;6.53;4.62;;;;;;;34.20;33.12;99891.60;1707725;84;21007;-79
2022/07/06 10:25:35;;;;;;;9.60;4.90;;;;;;;34.39;32.51;99886.22;1696457;84;20895;-79
2022/07/06 10:28:02;;;;;;;5.72;4.67;;;;;;;34.46;32.60;99881.22;1679339;84;21076;-79
2022/07/06 10:30:29;;;;;;;7.12;5.05;;;;;;;34.54;33.03;99883.29;1679250;85;21031;-80
2022/07/06 10:32:56;;;;;;;8.60;4.75;;;;;;;34.67;32.13;99882.60;1704833;84;21024;-79
2022/07/06 10:35:23;;;;;;;6.22;4.60;;;;;;;34.75;31.58;99877.58;1707823;84;21788;-78
2022/07/06 10:38:08;;;;;;;7.12;4.50;;;;;;;34.73;32.08;99880.03;1707605;84;21011;-79
2022/07/06 10:43:25;;;;;;;7.95;4.45;;;;;;;34.82;32.38;99870.59;1684787;83;20964;-79
2022/07/06 10:45:52;;;;;;;7.35;4.67;;;;;;;34.98;33.07;99868.51;1719488;82;21000;-79
2022/07/06 10:48:20;;;;;;;8.03;4.67;;;;;;;35.10;32.43;99862.02;1745625;82;22327;-80
2022/07/06 10:50:50;;;;;;;7.75;4.37;;;;;;;35.21;32.50;99870.35;1745410;82;21401;-80
2022/07/06 10:53:28;;;;;;;6.75;4.67;;;;;;;35.36;31.79;99871.25;1722661;82;20940;-80
2022/07/06 10:55:56;;;;;;;10.25;4.78;;;;;;;35.44;31.57;99869.23;1715697;82;20972;-80
2022/07/06 10:58:52;;;;;;;6.80;4.60;;;;;;;35.55;31.71;99865.20;1716081;83;21023;-80
2022/07/06 11:01:22;;;;;;;7.25;4.55;;;;;;;35.69;30.40;99854.25;1716898;82;21960;-81
2022/07/06 11:03:58;;;;;;;7.12;4.50;;;;;;;35.60;30.00;99863.73;1745558;82;21075;-80
2022/07/06 11:06:25;;;;;;;7.53;4.42;;;;;;;35.52;30.22;99854.83;1745669;82;21440;-81
2022/07/06 11:09:05;;;;;;;6.85;4.03;;;;;;;35.55;30.60;99852.84;1745232;80;20988;-81
2022/07/06 11:11:37;;;;;;;6.55;4.60;;;;;;;35.56;30.19;99838.80;1723873;82;20996;-80
2022/07/06 11:14:14;;;;;;;9.18;4.60;;;;;;;35.58;30.95;99832.20;1715953;82;21777;-80
2022/07/06 11:16:53;;;;;;;7.95;4.58;;;;;;;35.65;30.68;99836.75;1715685;82;21016;-81
2022/07/06 11:19:23;;;;;;;8.48;4.55;;;;;;;35.74;30.67;99833.01;1716015;82;21048;-79
2022/07/06 11:21:57;;;;;;;9.40;4.60;;;;;;;35.87;29.78;99824.56;1720646;82;21055;-79
2022/07/06 11:24:27;;;;;;;7.30;4.30;;;;;;;35.90;29.12;99836.31;1715732;83;20944;-81
2022/07/06 11:26:55;;;;;;;7.33;4.70;;;;;;;35.85;29.10;99826.77;1707278;83;21976;-80
2022/07/06 11:29:23;;;;;;;6.78;4.45;;;;;;;35.76;29.79;99822.53;1720182;82;21187;-81
2022/07/06 11:31:54;;;;;;;7.10;4.78;;;;;;;35.88;29.60;99821.25;1715597;83;20980;-81
2022/07/06 11:34:23;;;;;;;5.22;4.10;;;;;;;35.96;29.72;99809.00;1736288;82;21483;-80